Time;durP1;ratioP1;P1;durP2;ratioP2;P2;SDS_P1;SDS_P2;PMS_P1;PMS_P2;Temp;Humidity;BMP_temperature;BMP_pressure;BME280_temperature;BME280_humidity;BME280_pressure;Samples;Min_cycle;Max_cycle;Signal;HPM_P1;HPM_P2
2022/03/30 00:02:12;;;;;;;36.42;25.52;;;;;;;6.82;73.83;95537.64;1753820;81;20988;-78
2022/03/30 00:04:38;;;;;;;39.08;26.75;;;;;;;6.82;73.97;95535.86;1757095;81;21413;-78
2022/03/30 00:07:04;;;;;;;37.08;25.60;;;;;;;6.79;73.71;95532.84;1757017;81;20995;-78
2022/03/30 00:09:32;;;;;;;37.60;26.95;;;;;;;6.77;73.70;95532.22;1757126;81;20996;-78
2022/03/30 00:11:58;;;;;;;36.42;26.35;;;;;;;6.74;73.69;95530.00;1757113;81;21044;-79
2022/03/30 00:14:24;;;;;;;38.20;27.22;;;;;;;6.70;73.69;95530.85;1757044;81;20979;-78
2022/03/30 00:16:52;;;;;;;39.13;27.13;;;;;;;6.66;73.67;95524.42;1757240;81;20979;-78
2022/03/30 00:19:18;;;;;;;35.52;24.60;;;;;;;6.60;73.85;95523.36;1757301;81;21011;-78
2022/03/30 00:21:45;;;;;;;42.45;27.30;;;;;;;6.55;74.04;95526.97;1761116;81;20995;-79
2022/03/30 00:24:11;;;;;;;37.30;25.70;;;;;;;6.51;73.96;95530.89;1757954;81;20909;-78
2022/03/30 00:26:37;;;;;;;42.85;27.20;;;;;;;6.50;74.02;95533.63;1759317;81;20978;-78
2022/03/30 00:29:04;;;;;;;34.18;25.05;;;;;;;6.48;73.93;95530.42;1765065;81;20995;-78
2022/03/30 00:31:32;;;;;;;36.20;24.92;;;;;;;6.47;74.05;95530.91;1730818;81;20994;-79
2022/03/30 00:33:58;;;;;;;37.08;25.92;;;;;;;6.46;74.08;95523.35;1761782;81;21024;-78
2022/03/30 00:36:23;;;;;;;36.48;24.90;;;;;;;6.43;74.16;95523.22;1752220;81;20928;-78
2022/03/30 00:38:49;;;;;;;36.03;25.90;;;;;;;6.42;74.21;95520.82;1755123;81;21018;-78
2022/03/30 00:41:15;;;;;;;35.15;24.67;;;;;;;6.39;74.34;95519.40;1731690;83;21058;-78
2022/03/30 00:43:41;;;;;;;38.40;25.60;;;;;;;6.37;74.33;95518.78;1702500;84;21442;-78
2022/03/30 00:46:11;;;;;;;36.03;25.55;;;;;;;6.35;74.63;95512.19;1702565;84;21055;-78
2022/03/30 00:48:37;;;;;;;42.48;25.90;;;;;;;6.34;74.88;95513.94;1701107;84;21029;-79
2022/03/30 00:51:02;;;;;;;38.08;25.60;;;;;;;6.33;74.83;95509.77;1732041;83;20966;-79
2022/03/30 00:53:28;;;;;;;37.25;25.43;;;;;;;6.34;74.83;95510.07;1702618;84;21365;-79
2022/03/30 00:55:54;;;;;;;36.40;23.65;;;;;;;6.37;74.95;95502.50;1702698;84;21007;-79
2022/03/30 00:58:22;;;;;;;33.45;23.07;;;;;;;6.40;74.97;95504.72;1701162;84;21062;-79
2022/03/30 01:00:48;;;;;;;35.15;23.57;;;;;;;6.43;75.12;95496.61;1738800;81;21075;-79
2022/03/30 01:03:14;;;;;;;31.82;21.12;;;;;;;6.44;75.17;95486.11;1757070;82;20960;-79
2022/03/30 01:05:40;;;;;;;33.63;22.37;;;;;;;6.43;75.16;95489.67;1756998;82;21310;-79
2022/03/30 01:08:06;;;;;;;32.23;21.20;;;;;;;6.41;75.06;95492.92;1757178;82;20995;-79
2022/03/30 01:10:32;;;;;;;35.68;22.82;;;;;;;6.39;74.93;95494.88;1757239;81;20952;-79
2022/03/30 01:12:57;;;;;;;33.90;22.02;;;;;;;6.37;74.75;95495.55;1757031;81;20955;-79
2022/03/30 01:15:23;;;;;;;33.18;23.12;;;;;;;6.37;74.91;95485.23;1757095;82;20948;-79
2022/03/30 01:17:50;;;;;;;37.65;25.43;;;;;;;6.37;74.98;95481.36;1756856;82;21035;-79
2022/03/30 01:20:18;;;;;;;34.38;23.00;;;;;;;;;;1756860;81;20987;-79
2022/03/30 01:22:44;;;;;;;36.93;24.27;;;;;;;6.41;75.01;95477.44;1757448;82;20987;-79
2022/03/30 01:25:09;;;;;;;36.17;25.92;;;;;;;6.44;75.09;95482.73;1734406;81;21019;-78
2022/03/30 01:27:36;;;;;;;33.50;23.52;;;;;;;6.47;74.82;95482.38;1725993;83;21416;-79
2022/03/30 01:33:03;;;;;;;40.65;27.00;;;;;;;6.49;75.22;95479.13;1731621;83;21094;-79
2022/03/30 01:35:29;;;;;;;38.70;27.77;;;;;;;6.48;75.24;95476.23;1702557;84;20998;-80
2022/03/30 01:37:55;;;;;;;38.60;27.02;;;;;;;6.48;75.20;95478.81;1738829;80;21047;-79
2022/03/30 01:40:21;;;;;;;36.23;24.87;;;;;;;6.49;75.36;95474.76;1731793;82;21366;-79
2022/03/30 01:42:47;;;;;;;38.23;25.82;;;;;;;6.48;75.36;95466.70;1753886;81;21035;-80
2022/03/30 01:45:15;;;;;;;37.23;26.75;;;;;;;6.47;75.42;95465.11;1752538;82;20984;-79
2022/03/30 01:47:40;;;;;;;42.23;28.10;;;;;;;6.50;75.34;95467.81;1752501;82;21392;-79
2022/03/30 01:50:09;;;;;;;35.55;24.12;;;;;;;6.51;75.37;95468.16;1752548;82;21055;-79
2022/03/30 01:52:36;;;;;;;38.88;26.25;;;;;;;6.54;75.55;95469.08;1752514;82;20960;-79
2022/03/30 01:55:03;;;;;;;34.73;23.85;;;;;;;6.56;75.34;95469.70;1752505;82;21039;-79
2022/03/30 01:57:28;;;;;;;33.65;24.05;;;;;;;6.57;75.24;95470.02;1752647;82;20952;-79
2022/03/30 01:59:54;;;;;;;35.63;23.83;;;;;;;6.55;75.34;95457.29;1752611;82;21038;-79
2022/03/30 02:02:20;;;;;;;34.27;22.82;;;;;;;6.54;75.47;95458.77;1752424;81;21007;-79
2022/03/30 02:04:45;;;;;;;39.03;24.95;;;;;;;6.52;75.39;95453.78;1752498;82;21098;-80
2022/03/30 02:07:11;;;;;;;38.02;24.37;;;;;;;6.49;75.43;95453.31;1735463;82;21350;-80
2022/03/30 02:09:38;;;;;;;32.63;22.32;;;;;;;6.49;75.27;95448.16;1752502;82;21062;-79
2022/03/30 02:12:05;;;;;;;31.15;21.57;;;;;;;6.51;75.46;95454.77;1752381;82;21138;-79
2022/03/30 02:14:31;;;;;;;41.28;23.92;;;;;;;6.53;75.48;95445.05;1752578;82;21117;-80
2022/03/30 02:16:56;;;;;;;35.20;23.45;;;;;;;6.54;75.26;95437.63;1752549;82;20988;-79
2022/03/30 02:19:22;;;;;;;32.60;23.02;;;;;;;6.55;75.16;95436.64;1752555;82;21441;-77
2022/03/30 02:21:48;;;;;;;33.10;22.67;;;;;;;6.56;75.28;95438.23;1751909;82;21019;-77
2022/03/30 02:24:13;;;;;;;37.23;24.98;;;;;;;6.56;75.24;95434.86;1752044;82;20995;-77
2022/03/30 02:26:39;;;;;;;35.68;23.77;;;;;;;6.56;74.97;95439.53;1752039;82;20968;-77
2022/03/30 02:29:06;;;;;;;33.13;22.55;;;;;;;6.54;74.90;95433.75;1752481;82;20971;-77
2022/03/30 02:31:33;;;;;;;29.70;20.50;;;;;;;6.52;74.78;95438.30;1752526;81;21015;-77
2022/03/30 02:34:01;;;;;;;32.17;22.00;;;;;;;6.50;74.98;95438.94;1752284;82;21450;-77
2022/03/30 02:36:27;;;;;;;33.55;22.82;;;;;;;6.48;74.91;95439.61;1751753;81;21003;-77
2022/03/30 02:38:53;;;;;;;30.97;20.65;;;;;;;6.48;74.84;95431.87;1735128;82;20955;-77
2022/03/30 02:41:19;;;;;;;31.30;20.43;;;;;;;6.48;74.74;95428.00;1753296;81;21471;-77
2022/03/30 02:43:45;;;;;;;29.25;20.17;;;;;;;6.49;74.76;95430.89;1757117;81;21039;-77
2022/03/30 02:46:10;;;;;;;29.23;21.17;;;;;;;6.50;74.65;95425.23;1757086;81;20956;-77
2022/03/30 02:48:38;;;;;;;29.20;20.35;;;;;;;6.49;74.47;95427.51;1757172;82;21010;-77
2022/03/30 02:51:06;;;;;;;29.85;20.92;;;;;;;6.46;74.57;95425.29;1757163;81;21047;-77
2022/03/30 02:53:33;;;;;;;30.72;22.15;;;;;;;6.43;74.60;95424.36;1757134;82;21406;-77
2022/03/30 02:55:59;;;;;;;35.88;22.60;;;;;;;6.40;74.66;95428.11;1757013;81;21074;-77
2022/03/30 02:58:25;;;;;;;35.68;23.10;;;;;;;6.38;74.72;95430.56;1757356;81;21035;-77
2022/03/30 03:00:50;;;;;;;39.15;26.45;;;;;;;6.36;74.90;95432.52;1757041;81;21437;-77
2022/03/30 03:03:16;;;;;;;40.85;28.00;;;;;;;6.34;74.97;95436.55;1757081;81;21316;-77
2022/03/30 03:05:42;;;;;;;38.33;26.25;;;;;;;6.36;75.06;95426.07;1757254;81;21003;-77
2022/03/30 03:08:13;;;;;;;40.58;26.73;;;;;;;6.39;75.17;95433.45;1757034;82;21003;-77
2022/03/30 03:10:41;;;;;;;37.45;25.65;;;;;;;6.39;75.18;95433.45;1756946;81;20967;-77
2022/03/30 03:13:07;;;;;;;41.00;26.23;;;;;;;6.39;75.13;95431.67;1757087;81;21044;-77
2022/03/30 03:15:35;;;;;;;43.23;28.67;;;;;;;6.40;75.09;95429.89;1757363;81;21093;-77
2022/03/30 03:18:03;;;;;;;45.12;30.00;;;;;;;6.39;75.31;95433.45;1757272;81;20975;-77
2022/03/30 03:20:30;;;;;;;48.28;32.08;;;;;;;6.35;75.34;95427.84;1757172;81;21337;-78
2022/03/30 03:22:56;;;;;;;49.90;32.40;;;;;;;6.32;75.36;95428.98;1757185;82;20944;-77
2022/03/30 03:25:22;;;;;;;54.08;33.85;;;;;;;6.29;75.37;95428.55;1757127;82;20987;-77
2022/03/30 03:27:48;;;;;;;55.20;34.15;;;;;;;6.26;75.35;95421.97;1757129;82;21346;-77
2022/03/30 03:30:14;;;;;;;57.25;36.20;;;;;;;6.25;75.39;95424.73;1757307;81;20935;-77
2022/03/30 03:32:41;;;;;;;59.27;36.77;;;;;;;6.25;75.33;95429.89;1735092;80;21018;-77
2022/03/30 03:35:12;;;;;;;50.10;33.18;;;;;;;6.24;75.41;95426.51;1735258;82;21388;-77
2022/03/30 03:37:39;;;;;;;49.80;35.40;;;;;;;6.24;75.45;95427.00;1755407;81;20979;-77
2022/03/30 03:40:07;;;;;;;57.05;36.30;;;;;;;6.23;75.50;95426.69;1749852;82;21401;-77
2022/03/30 03:42:33;;;;;;;51.42;33.98;;;;;;;6.21;75.54;95426.87;1750298;81;21428;-76
2022/03/30 03:44:59;;;;;;;54.58;36.10;;;;;;;6.19;75.51;95424.95;1753678;82;20979;-76
2022/03/30 03:47:25;;;;;;;54.83;35.60;;;;;;;6.21;75.61;95424.78;1754734;82;21003;-77
2022/03/30 03:49:51;;;;;;;57.58;37.75;;;;;;;6.19;75.68;95416.42;1754635;82;21368;-77
2022/03/30 03:52:17;;;;;;;55.40;35.68;;;;;;;6.17;75.64;95419.15;1754705;82;21017;-77
2022/03/30 03:54:43;;;;;;;52.53;34.43;;;;;;;6.13;75.70;95420.49;1754565;82;21031;-77
2022/03/30 03:57:08;;;;;;;52.50;34.75;;;;;;;6.10;75.71;95416.18;1753071;82;21007;-77
2022/03/30 03:59:35;;;;;;;53.17;34.38;;;;;;;6.10;75.71;95421.34;1751368;82;21039;-77
2022/03/30 04:02:04;;;;;;;42.30;29.85;;;;;;;6.09;75.71;95420.54;1753872;81;21365;-77
2022/03/30 04:04:30;;;;;;;46.60;31.12;;;;;;;6.10;75.73;95420.85;1754490;82;21038;-76
2022/03/30 04:06:56;;;;;;;41.35;27.73;;;;;;;6.09;75.80;95420.54;1753985;82;21339;-77
2022/03/30 04:09:22;;;;;;;40.33;25.40;;;;;;;6.08;75.82;95421.52;1753339;82;21027;-77
2022/03/30 04:11:47;;;;;;;35.60;23.38;;;;;;;6.06;75.87;95417.03;1754545;82;21015;-77
2022/03/30 04:14:15;;;;;;;37.03;24.63;;;;;;;6.05;75.96;95419.30;1750776;82;21393;-77
2022/03/30 04:16:41;;;;;;;34.80;22.93;;;;;;;6.01;76.07;95416.25;1750879;82;21000;-77
2022/03/30 04:19:07;;;;;;;33.25;22.17;;;;;;;6.01;76.25;95421.41;1752785;82;20975;-77
2022/03/30 04:21:33;;;;;;;35.10;23.20;;;;;;;6.00;76.24;95413.36;1752787;82;20979;-77
2022/03/30 04:23:59;;;;;;;35.28;23.32;;;;;;;6.01;76.12;95407.22;1752822;82;20955;-77
2022/03/30 04:26:25;;;;;;;36.42;24.45;;;;;;;6.00;76.07;95408.70;1752423;82;21032;-77
2022/03/30 04:28:51;;;;;;;36.95;24.65;;;;;;;5.97;76.03;95404.70;1754436;82;20979;-77
2022/03/30 04:31:16;;;;;;;35.35;23.42;;;;;;;5.94;75.90;95402.97;1753693;81;20995;-77
2022/03/30 04:33:42;;;;;;;35.88;24.27;;;;;;;5.90;75.87;95404.30;1751717;82;21412;-77
2022/03/30 04:36:08;;;;;;;39.78;25.45;;;;;;;5.86;75.89;95406.89;1754473;82;20971;-77
2022/03/30 04:38:34;;;;;;;42.48;26.85;;;;;;;5.83;75.88;95398.20;1728003;82;20963;-77
2022/03/30 04:41:00;;;;;;;41.25;26.45;;;;;;;5.81;75.75;95407.40;1751884;82;21417;-77
2022/03/30 04:43:27;;;;;;;42.45;27.05;;;;;;;5.82;75.80;95409.00;1755226;82;21047;-77
2022/03/30 04:45:55;;;;;;;44.88;28.87;;;;;;;5.84;75.72;95400.59;1753340;81;20963;-77
2022/03/30 04:48:22;;;;;;;42.75;28.38;;;;;;;5.85;75.75;95396.24;1756038;81;20994;-77
2022/03/30 04:50:51;;;;;;;42.35;27.98;;;;;;;5.85;75.71;95399.62;1757164;81;21391;-77
2022/03/30 04:53:17;;;;;;;44.73;29.95;;;;;;;5.85;75.81;95397.05;1757124;81;21010;-79
2022/03/30 04:55:43;;;;;;;44.42;28.73;;;;;;;5.85;75.85;95394.47;1757060;82;21094;-79
2022/03/30 04:58:09;;;;;;;43.83;28.77;;;;;;;5.84;75.87;95400.59;1756767;82;21364;-79
2022/03/30 05:00:35;;;;;;;43.48;28.25;;;;;;;5.83;75.87;95400.78;1757007;81;21383;-79
2022/03/30 05:03:01;;;;;;;49.27;31.73;;;;;;;5.81;75.98;95398.37;1746673;82;20987;-78
2022/03/30 05:05:27;;;;;;;43.55;28.57;;;;;;;5.82;76.07;95399.98;1734398;83;21377;-79
2022/03/30 05:07:55;;;;;;;43.30;28.15;;;;;;;5.83;76.16;95397.71;1734386;83;21055;-79
2022/03/30 05:10:21;;;;;;;41.30;28.55;;;;;;;5.87;76.11;95402.84;1734958;83;21019;-79
2022/03/30 05:12:47;;;;;;;41.30;28.20;;;;;;;5.91;76.11;95400.74;1734844;83;21062;-79
2022/03/30 05:15:12;;;;;;;43.35;28.32;;;;;;;5.93;76.13;95407.81;1735045;83;20932;-79
2022/03/30 05:17:40;;;;;;;44.70;28.00;;;;;;;5.95;76.31;95406.66;1726327;82;20994;-79
2022/03/30 05:20:08;;;;;;;48.63;30.08;;;;;;;5.96;76.41;95401.80;1734311;82;20959;-79
2022/03/30 05:22:33;;;;;;;45.43;29.42;;;;;;;5.96;76.42;95405.67;1701310;82;21071;-79
2022/03/30 05:25:00;;;;;;;46.92;30.12;;;;;;;5.96;76.60;95407.45;1734385;82;21091;-78
2022/03/30 05:27:26;;;;;;;47.33;30.70;;;;;;;5.97;76.87;95411.63;1751486;81;21119;-79
2022/03/30 05:29:52;;;;;;;50.70;30.62;;;;;;;5.98;77.02;95410.16;1742783;81;20999;-78
2022/03/30 05:32:18;;;;;;;42.08;28.15;;;;;;;6.00;76.99;95403.05;1726173;82;21019;-79
2022/03/30 05:34:44;;;;;;;41.98;27.30;;;;;;;6.06;76.91;95418.32;1733069;82;21066;-79
2022/03/30 05:37:10;;;;;;;44.13;28.90;;;;;;;6.12;76.92;95416.31;1743473;82;21293;-79
2022/03/30 05:39:39;;;;;;;45.35;29.25;;;;;;;6.18;77.05;95413.50;1743668;82;20931;-79
2022/03/30 05:42:04;;;;;;;44.95;29.12;;;;;;;6.22;77.11;95410.90;1753330;81;21449;-79
2022/03/30 05:44:31;;;;;;;46.15;29.02;;;;;;;6.24;77.00;95407.65;1752460;82;20952;-79
2022/03/30 05:46:57;;;;;;;46.40;29.87;;;;;;;6.25;77.01;95410.05;1734265;83;21317;-79
2022/03/30 05:49:24;;;;;;;49.48;29.05;;;;;;;6.28;77.03;95404.53;1752374;82;20952;-80
2022/03/30 05:51:50;;;;;;;50.52;32.83;;;;;;;6.32;77.21;95394.64;1733869;83;21348;-79
2022/03/30 05:54:16;;;;;;;48.95;31.73;;;;;;;6.39;77.28;95394.75;1733589;82;21042;-79
2022/03/30 05:57:00;;;;;;;53.45;34.30;;;;;;;6.49;77.07;95399.12;1750671;82;20944;-79
2022/03/30 05:59:35;;;;;;;48.17;32.63;;;;;;;6.57;76.77;95387.42;1729438;83;21082;-79
2022/03/30 06:02:02;;;;;;;51.50;35.23;;;;;;;6.69;76.85;95390.34;1716962;83;21435;-79
2022/03/30 06:04:28;;;;;;;47.43;32.20;;;;;;;6.77;76.73;95394.89;1716488;83;21095;-79
2022/03/30 06:06:54;;;;;;;55.03;37.25;;;;;;;6.87;77.40;95396.70;1737607;82;21123;-79
2022/03/30 06:09:20;;;;;;;55.45;35.03;;;;;;;6.96;77.08;95395.28;1737851;82;21036;-78
2022/03/30 06:11:46;;;;;;;58.25;36.45;;;;;;;7.00;76.74;95396.05;1737777;82;21063;-79
2022/03/30 06:14:14;;;;;;;61.00;37.03;;;;;;;6.96;76.02;95386.24;1744698;82;21532;-79
2022/03/30 06:16:40;;;;;;;65.25;41.00;;;;;;;6.92;75.98;95387.11;1740818;82;21066;-79
2022/03/30 06:19:06;;;;;;;66.62;40.80;;;;;;;6.96;76.15;95388.83;1728259;83;21098;-78
2022/03/30 06:21:32;;;;;;;64.92;39.80;;;;;;;7.02;76.27;95391.49;1664083;82;21055;-79
2022/03/30 06:24:02;;;;;;;56.13;36.73;;;;;;;7.11;76.04;95394.25;1743918;82;21015;-79
2022/03/30 06:26:25;;;;;;;56.95;37.53;;;;;;;7.19;75.54;95395.93;1714154;83;20967;-79
2022/03/30 06:28:51;;;;;;;54.40;36.63;;;;;;;7.26;75.55;95389.02;1719144;83;21334;-79
2022/03/30 06:31:17;;;;;;;59.63;40.28;;;;;;;7.33;75.67;95396.86;1730019;83;20964;-79
2022/03/30 06:33:45;;;;;;;62.13;39.00;;;;;;;7.37;75.43;95386.45;1732406;82;21027;-79
2022/03/30 06:36:12;;;;;;;52.05;36.23;;;;;;;7.41;75.83;95394.92;1732166;83;21106;-79
2022/03/30 06:38:38;;;;;;;63.33;41.00;;;;;;;7.31;74.34;95401.38;1732707;82;20960;-79
2022/03/30 06:41:05;;;;;;;56.83;37.67;;;;;;;7.24;74.51;95403.92;1707825;83;21416;-79
2022/03/30 06:43:31;;;;;;;58.92;36.75;;;;;;;7.25;74.73;95399.05;1737026;81;21069;-79
2022/03/30 06:45:57;;;;;;;56.55;38.78;;;;;;;7.23;74.30;95401.83;1741271;81;21042;-79
2022/03/30 06:48:23;;;;;;;52.98;35.78;;;;;;;7.21;74.27;95400.42;1741595;81;21053;-79
2022/03/30 06:50:48;;;;;;;59.83;40.85;;;;;;;7.18;74.52;95397.71;1741848;81;21050;-79
2022/03/30 06:53:14;;;;;;;53.70;36.83;;;;;;;7.19;75.00;95392.05;1741191;81;21424;-80
2022/03/30 06:55:40;;;;;;;60.65;39.30;;;;;;;7.23;74.86;95393.28;1742021;81;21333;-79
2022/03/30 06:58:06;;;;;;;54.90;38.83;;;;;;;7.21;74.86;95393.46;1765083;81;21021;-79
2022/03/30 07:00:32;;;;;;;55.10;38.02;;;;;;;7.23;74.71;95390.69;1761640;80;20987;-79
2022/03/30 07:02:58;;;;;;;59.23;39.63;;;;;;;7.21;74.72;95390.88;1765995;81;21018;-79
2022/03/30 07:05:24;;;;;;;61.58;39.55;;;;;;;7.27;74.84;95389.33;1734610;83;21023;-79
2022/03/30 07:10:34;;;;;;;58.00;40.70;;;;;;;7.37;74.66;95385.16;1763060;81;21010;-79
2022/03/30 07:13:03;;;;;;;65.12;43.15;;;;;;;7.41;75.12;95385.08;1758968;81;20998;-79
2022/03/30 07:15:30;;;;;;;71.15;43.08;;;;;;;7.50;75.33;95385.27;1739650;82;20958;-79
2022/03/30 07:17:58;;;;;;;65.12;39.90;;;;;;;7.60;75.86;95392.19;1763317;81;20995;-80
2022/03/30 07:20:25;;;;;;;63.00;42.43;;;;;;;7.69;75.50;95388.50;1754864;80;21038;-77
2022/03/30 07:22:51;;;;;;;62.55;41.70;;;;;;;7.85;75.41;95394.38;1734841;81;21089;-77
2022/03/30 07:25:19;;;;;;;62.05;42.15;;;;;;;7.96;75.07;95393.34;1728244;81;21082;-77
2022/03/30 07:27:51;;;;;;;63.87;41.23;;;;;;;8.01;74.76;95388.91;1737540;82;21018;-77
2022/03/30 07:30:17;;;;;;;;;;;;;;;8.05;75.10;95388.34;1738902;82;21038;-77
2022/03/30 07:32:46;;;;;;;66.20;41.85;;;;;;;8.10;74.15;95390.34;1758863;81;20105;-77
2022/03/30 07:35:15;;;;;;;62.88;43.00;;;;;;;8.15;74.62;95390.59;1767686;81;21334;-77
2022/03/30 07:37:41;;;;;;;64.85;43.52;;;;;;;8.20;74.19;95395.99;1737225;83;21078;-77
2022/03/30 07:40:09;;;;;;;63.87;43.60;;;;;;;8.13;73.41;95392.08;1767201;81;20975;-77
2022/03/30 07:42:35;;;;;;;56.70;37.67;;;;;;;8.18;73.89;95390.70;1736618;82;21428;-77
2022/03/30 07:45:01;;;;;;;57.35;40.33;;;;;;;8.26;73.46;95391.33;1760392;81;21063;-77
2022/03/30 07:47:27;;;;;;;58.83;39.58;;;;;;;8.28;73.27;95389.35;1728029;82;21027;-77
2022/03/30 07:49:53;;;;;;;52.13;35.35;;;;;;;8.28;72.93;95390.64;1729213;81;21098;-77
2022/03/30 07:52:20;;;;;;;57.65;38.92;;;;;;;8.33;73.21;95388.30;1734753;81;21003;-78
2022/03/30 07:54:47;;;;;;;57.03;36.73;;;;;;;8.30;72.83;95386.59;1753862;81;21612;-77
2022/03/30 07:57:13;;;;;;;54.38;36.53;;;;;;;8.34;73.21;95382.66;1730699;81;21015;-77
2022/03/30 07:59:39;;;;;;;48.87;31.50;;;;;;;8.45;72.35;95380.80;1744901;81;21439;-77
2022/03/30 08:02:05;;;;;;;53.20;35.30;;;;;;;8.49;72.21;95378.65;1741461;81;21049;-77
2022/03/30 08:04:30;;;;;;;53.38;36.30;;;;;;;8.57;72.31;95381.06;1742911;81;21298;-79
2022/03/30 08:06:56;;;;;;;43.45;27.82;;;;;;;8.52;71.18;95379.55;1741401;81;21034;-78
2022/03/30 08:09:22;;;;;;;51.77;35.73;;;;;;;8.52;71.25;95386.83;1742979;81;20998;-78
2022/03/30 08:11:48;;;;;;;51.63;34.48;;;;;;;8.53;71.81;95383.73;1743175;81;20979;-77
2022/03/30 08:14:13;;;;;;;50.98;35.43;;;;;;;8.49;71.42;95385.92;1730160;82;20994;-77
2022/03/30 08:16:39;;;;;;;57.93;37.88;;;;;;;8.48;71.33;95380.44;1742889;81;21388;-78
2022/03/30 08:19:06;;;;;;;54.27;36.93;;;;;;;8.53;71.99;95386.33;1738586;81;21034;-77
2022/03/30 08:24:16;;;;;;;52.50;37.08;;;;;;;8.66;71.71;95379.91;1754247;81;21333;-77
2022/03/30 08:26:42;;;;;;;51.48;35.40;;;;;;;8.72;71.22;95385.59;1752108;81;20972;-77
2022/03/30 08:29:10;;;;;;;53.20;35.15;;;;;;;8.79;71.68;95381.75;1721538;82;21331;-77
2022/03/30 08:31:36;;;;;;;57.67;38.70;;;;;;;8.85;71.51;95383.55;1735422;82;20982;-77
2022/03/30 08:34:02;;;;;;;57.33;38.10;;;;;;;8.79;70.39;95381.75;1735050;82;20952;-77
2022/03/30 08:36:31;;;;;;;52.17;36.35;;;;;;;8.81;71.54;95383.15;1734479;82;20951;-77
2022/03/30 08:38:58;;;;;;;47.75;33.80;;;;;;;8.92;71.27;95373.50;1735195;83;21038;-77
2022/03/30 08:41:24;;;;;;;56.58;36.45;;;;;;;9.01;71.07;95379.31;1736325;82;21023;-77
2022/03/30 08:43:50;;;;;;;52.75;35.28;;;;;;;9.03;70.97;95375.53;1721061;82;21083;-77
2022/03/30 08:46:16;;;;;;;50.45;36.40;;;;;;;9.12;70.54;95380.54;1714974;83;21047;-77
2022/03/30 08:48:42;;;;;;;56.25;38.60;;;;;;;9.23;71.19;95385.13;1716713;83;21055;-78
2022/03/30 08:51:08;;;;;;;55.43;36.42;;;;;;;9.31;70.71;95380.56;1721656;83;21333;-77
2022/03/30 08:53:34;;;;;;;56.92;37.80;;;;;;;9.37;69.96;95374.28;1712752;82;20964;-77
2022/03/30 08:56:01;;;;;;;55.45;38.00;;;;;;;9.29;68.98;95373.48;1715601;83;20995;-77
2022/03/30 08:58:27;;;;;;;55.10;37.63;;;;;;;9.21;68.93;95370.27;1710204;83;21008;-79
2022/03/30 09:00:53;;;;;;;54.80;36.42;;;;;;;9.33;70.24;95372.59;1693111;83;20940;-80
2022/03/30 09:03:19;;;;;;;52.65;37.93;;;;;;;9.44;69.42;95371.20;1712554;83;20995;-79
2022/03/30 09:05:45;;;;;;;53.78;37.48;;;;;;;9.54;70.12;95372.39;1719911;82;20951;-79
2022/03/30 09:08:25;;;;;;;59.60;39.05;;;;;;;9.51;68.77;95374.09;1718435;82;21064;-79
2022/03/30 09:10:49;;;;;;;59.15;40.58;;;;;;;9.57;69.82;95373.28;1717296;82;21421;-79
2022/03/30 09:13:17;;;;;;;56.02;39.80;;;;;;;9.72;69.38;95374.37;1704679;83;21006;-79
2022/03/30 09:15:44;;;;;;;56.35;38.63;;;;;;;9.86;69.09;95373.87;1716227;82;20983;-79
2022/03/30 09:18:11;;;;;;;52.35;37.67;;;;;;;10.00;69.09;95375.45;1712688;82;20991;-79
2022/03/30 09:20:40;;;;;;;53.87;36.98;;;;;;;10.07;67.38;95373.63;1712928;82;21034;-79
2022/03/30 09:23:08;;;;;;;55.88;37.85;;;;;;;10.01;67.78;95370.56;1712940;82;21014;-78
2022/03/30 09:25:34;;;;;;;51.18;35.15;;;;;;;10.06;67.73;95364.75;1717408;82;21398;-79
2022/03/30 09:28:00;;;;;;;49.98;33.88;;;;;;;10.14;67.27;95364.55;1717354;82;21050;-79
2022/03/30 09:30:27;;;;;;;55.90;36.73;;;;;;;10.19;66.74;95349.95;1714766;82;20997;-79
2022/03/30 09:32:55;;;;;;;53.08;35.98;;;;;;;10.21;66.46;95353.16;1714378;82;20983;-79
2022/03/30 09:35:27;;;;;;;49.70;35.08;;;;;;;10.19;67.38;95346.05;1713806;82;21401;-79
2022/03/30 09:38:06;;;;;;;49.10;35.75;;;;;;;10.31;66.95;95338.97;1714484;82;20936;-79
2022/03/30 09:40:37;;;;;;;51.48;36.20;;;;;;;10.28;65.64;95338.09;1712886;82;20935;-79
2022/03/30 09:43:15;;;;;;;52.80;34.70;;;;;;;10.27;66.56;95338.59;1715007;81;21416;-79
2022/03/30 09:45:41;;;;;;;44.95;32.90;;;;;;;10.33;65.90;95323.98;1736830;82;21003;-79
2022/03/30 09:48:22;;;;;;;39.80;28.27;;;;;;;10.32;65.87;95328.87;1740425;82;20998;-79
2022/03/30 09:50:51;;;;;;;45.15;34.45;;;;;;;10.32;65.34;95328.37;1742327;82;21015;-79
2022/03/30 09:53:20;;;;;;;48.90;32.23;;;;;;;10.33;65.89;95326.58;1741909;82;20962;-79
2022/03/30 09:56:05;;;;;;;51.68;35.83;;;;;;;10.43;66.10;95327.74;1742572;82;20968;-79
2022/03/30 09:58:34;;;;;;;30.50;22.42;;;;;;;10.52;66.52;95330.39;1754234;81;21018;-79
2022/03/30 10:01:19;;;;;;;49.88;32.63;;;;;;;10.63;64.71;95322.95;1724327;82;21432;-79
2022/03/30 10:03:51;;;;;;;52.53;36.23;;;;;;;10.64;65.40;95318.05;1743164;81;21062;-79
2022/03/30 10:06:33;;;;;;;44.83;31.42;;;;;;;10.71;64.84;95314.91;1745063;81;20971;-79
2022/03/30 10:08:59;;;;;;;43.68;32.05;;;;;;;10.73;64.57;95313.69;1733968;82;21556;-80
2022/03/30 10:11:27;;;;;;;47.53;32.60;;;;;;;10.74;64.21;95314.52;1751759;81;21042;-79
2022/03/30 10:13:56;;;;;;;50.88;33.60;;;;;;;10.81;63.78;95310.06;1733318;82;21073;-79
2022/03/30 10:16:23;;;;;;;47.95;34.08;;;;;;;10.82;63.74;95304.66;1757044;81;20928;-79
2022/03/30 10:18:51;;;;;;;45.95;32.78;;;;;;;10.92;63.53;95303.41;1744380;81;21055;-79
2022/03/30 10:21:22;;;;;;;47.60;32.10;;;;;;;10.97;63.00;95296.57;1742232;81;21054;-79
2022/03/30 10:24:19;;;;;;;47.63;34.07;;;;;;;10.98;63.51;95296.86;1704589;81;21371;-79
2022/03/30 10:27:14;;;;;;;48.80;33.05;;;;;;;11.11;64.14;95295.98;1721597;82;21018;-79
2022/03/30 10:29:48;;;;;;;39.95;29.23;;;;;;;11.12;62.42;95299.67;1733718;83;21027;-80
2022/03/30 10:32:23;;;;;;;47.95;32.40;;;;;;;11.12;60.59;95289.77;1732166;81;20975;-79
2022/03/30 10:35:05;;;;;;;43.02;31.07;;;;;;;10.99;62.07;95288.06;1724690;82;20964;-80
2022/03/30 10:37:38;;;;;;;42.67;30.45;;;;;;;10.99;61.78;95289.36;1733005;83;20942;-80
2022/03/30 10:40:10;;;;;;;46.08;32.88;;;;;;;10.97;62.46;95293.17;1732057;83;21104;-79
2022/03/30 10:42:57;;;;;;;43.35;31.87;;;;;;;11.05;62.60;95289.00;1733950;83;21005;-79
2022/03/30 10:45:43;;;;;;;38.33;27.37;;;;;;;11.00;61.82;95283.15;1730575;83;21012;-79
2022/03/30 10:48:36;;;;;;;46.70;33.70;;;;;;;11.00;62.11;95272.75;1730848;83;20988;-80
2022/03/30 10:51:14;;;;;;;45.38;31.02;;;;;;;10.95;61.25;95270.00;1730493;83;20991;-80
2022/03/30 10:53:50;;;;;;;43.23;33.63;;;;;;;10.98;62.76;95269.58;1730625;83;21098;-80
2022/03/30 10:56:24;;;;;;;48.38;31.75;;;;;;;11.04;62.32;95260.13;1708759;83;21046;-80
2022/03/30 10:58:55;;;;;;;38.17;27.75;;;;;;;11.14;62.67;95259.16;1702678;84;20975;-80
2022/03/30 11:01:25;;;;;;;44.23;30.95;;;;;;;11.25;61.69;95258.48;1702825;83;21043;-79
2022/03/30 11:04:08;;;;;;;46.42;32.03;;;;;;;11.31;62.23;95258.12;1705179;84;20983;-80
2022/03/30 11:06:36;;;;;;;47.83;32.67;;;;;;;11.13;59.05;95259.66;1705000;84;20943;-79
2022/03/30 11:09:08;;;;;;;48.28;34.65;;;;;;;11.02;61.30;95260.34;1704981;84;21436;-80
2022/03/30 11:11:43;;;;;;;49.98;35.08;;;;;;;11.09;61.31;95259.00;1694590;85;21052;-80
2022/03/30 11:14:43;;;;;;;47.20;33.58;;;;;;;11.09;60.74;95261.61;1704977;84;21065;-79
2022/03/30 11:17:15;;;;;;;45.43;30.88;;;;;;;10.95;60.13;95261.41;1677395;84;21006;-80
2022/03/30 11:19:54;;;;;;;42.80;28.87;;;;;;;10.90;60.89;95261.22;1704923;84;21417;-80
2022/03/30 11:22:29;;;;;;;41.75;29.48;;;;;;;10.91;61.61;95257.64;1694791;85;21044;-80
2022/03/30 11:25:20;;;;;;;43.85;32.25;;;;;;;10.83;60.49;95256.08;1705254;83;20932;-79
2022/03/30 11:28:03;;;;;;;41.42;30.32;;;;;;;10.68;60.32;95251.17;1705051;84;21035;-77
2022/03/30 11:30:31;;;;;;;44.27;29.92;;;;;;;10.70;61.19;95244.47;1701481;83;21007;-79
2022/03/30 11:33:19;;;;;;;43.98;30.70;;;;;;;10.74;60.81;95245.66;1707975;82;21023;-79
2022/03/30 11:35:46;;;;;;;39.48;28.35;;;;;;;10.79;60.76;95245.82;1708469;84;20990;-79
2022/03/30 11:38:21;;;;;;;42.45;29.80;;;;;;;10.92;61.01;95234.55;1708162;84;21353;-79